sensor_id;sensor_type;location;lat;lon;timestamp;P1;durP1;ratioP1;P2;durP2;ratioP2
2225;SDS011;1119;48.288;8.726;2023-02-28T00:00:45;2.40;;;2.30;;
2225;SDS011;1119;48.288;8.726;2023-02-28T00:03:32;3.75;;;3.65;;
2225;SDS011;1119;48.288;8.726;2023-02-28T00:06:22;3.08;;;2.97;;
2225;SDS011;1119;48.288;8.726;2023-02-28T00:09:10;3.65;;;3.35;;
2225;SDS011;1119;48.288;8.726;2023-02-28T00:11:58;2.03;;;2.03;;
2225;SDS011;1119;48.288;8.726;2023-02-28T00:14:45;3.08;;;2.88;;
2225;SDS011;1119;48.288;8.726;2023-02-28T00:17:33;3.97;;;3.47;;
2225;SDS011;1119;48.288;8.726;2023-02-28T00:20:21;2.78;;;2.67;;
2225;SDS011;1119;48.288;8.726;2023-02-28T00:23:10;3.75;;;3.65;;
2225;SDS011;1119;48.288;8.726;2023-02-28T00:25:57;2.70;;;2.50;;
2225;SDS011;1119;48.288;8.726;2023-02-28T00:28:45;2.58;;;2.50;;
2225;SDS011;1119;48.288;8.726;2023-02-28T00:31:34;3.72;;;3.53;;
2225;SDS011;1119;48.288;8.726;2023-02-28T00:34:21;2.97;;;2.67;;
2225;SDS011;1119;48.288;8.726;2023-02-28T00:37:09;1.90;;;1.90;;
2225;SDS011;1119;48.288;8.726;2023-02-28T00:39:59;5.85;;;3.47;;
2225;SDS011;1119;48.288;8.726;2023-02-28T00:42:50;2.85;;;2.75;;
2225;SDS011;1119;48.288;8.726;2023-02-28T00:45:38;2.60;;;2.50;;
2225;SDS011;1119;48.288;8.726;2023-02-28T00:48:25;2.50;;;2.40;;
2225;SDS011;1119;48.288;8.726;2023-02-28T00:51:13;6.22;;;3.88;;
2225;SDS011;1119;48.288;8.726;2023-02-28T00:54:01;2.90;;;2.80;;
2225;SDS011;1119;48.288;8.726;2023-02-28T00:56:49;2.72;;;2.60;;
2225;SDS011;1119;48.288;8.726;2023-02-28T00:59:37;3.13;;;2.90;;
2225;SDS011;1119;48.288;8.726;2023-02-28T01:02:25;3.22;;;2.90;;
2225;SDS011;1119;48.288;8.726;2023-02-28T01:05:13;2.78;;;2.58;;
2225;SDS011;1119;48.288;8.726;2023-02-28T01:08:01;2.80;;;2.70;;
2225;SDS011;1119;48.288;8.726;2023-02-28T01:10:48;6.38;;;3.00;;
2225;SDS011;1119;48.288;8.726;2023-02-28T01:13:38;2.67;;;2.58;;
2225;SDS011;1119;48.288;8.726;2023-02-28T01:16:26;2.45;;;2.35;;
2225;SDS011;1119;48.288;8.726;2023-02-28T01:19:14;2.90;;;2.70;;
2225;SDS011;1119;48.288;8.726;2023-02-28T01:22:02;3.85;;;3.60;;
2225;SDS011;1119;48.288;8.726;2023-02-28T01:24:51;2.97;;;2.40;;
2225;SDS011;1119;48.288;8.726;2023-02-28T01:27:39;4.53;;;2.20;;
2225;SDS011;1119;48.288;8.726;2023-02-28T01:30:28;2.88;;;2.67;;
2225;SDS011;1119;48.288;8.726;2023-02-28T01:33:16;3.58;;;3.38;;
2225;SDS011;1119;48.288;8.726;2023-02-28T01:36:04;6.05;;;2.22;;
2225;SDS011;1119;48.288;8.726;2023-02-28T01:38:55;2.67;;;2.58;;
2225;SDS011;1119;48.288;8.726;2023-02-28T01:41:43;3.95;;;3.00;;
2225;SDS011;1119;48.288;8.726;2023-02-28T01:47:46;4.22;;;4.03;;
2225;SDS011;1119;48.288;8.726;2023-02-28T01:50:38;8.93;;;3.50;;
2225;SDS011;1119;48.288;8.726;2023-02-28T01:53:30;3.53;;;3.42;;
2225;SDS011;1119;48.288;8.726;2023-02-28T01:56:23;2.35;;;2.25;;
2225;SDS011;1119;48.288;8.726;2023-02-28T01:59:17;4.15;;;3.85;;
2225;SDS011;1119;48.288;8.726;2023-02-28T02:02:11;3.63;;;3.35;;
2225;SDS011;1119;48.288;8.726;2023-02-28T02:05:05;4.80;;;2.95;;
2225;SDS011;1119;48.288;8.726;2023-02-28T02:07:57;4.30;;;4.03;;
2225;SDS011;1119;48.288;8.726;2023-02-28T02:10:51;4.00;;;3.80;;
2225;SDS011;1119;48.288;8.726;2023-02-28T02:17:28;2.65;;;2.55;;
2225;SDS011;1119;48.288;8.726;2023-02-28T02:24:07;2.80;;;2.60;;
2225;SDS011;1119;48.288;8.726;2023-02-28T02:27:32;3.20;;;3.00;;
2225;SDS011;1119;48.288;8.726;2023-02-28T02:37:47;3.30;;;3.10;;
2225;SDS011;1119;48.288;8.726;2023-02-28T02:40:41;2.38;;;2.28;;
2225;SDS011;1119;48.288;8.726;2023-02-28T02:43:34;2.60;;;2.50;;
2225;SDS011;1119;48.288;8.726;2023-02-28T02:46:28;3.30;;;3.10;;
2225;SDS011;1119;48.288;8.726;2023-02-28T02:49:21;2.85;;;2.75;;
2225;SDS011;1119;48.288;8.726;2023-02-28T02:52:16;2.90;;;2.80;;
2225;SDS011;1119;48.288;8.726;2023-02-28T02:55:09;2.45;;;2.33;;
2225;SDS011;1119;48.288;8.726;2023-02-28T02:58:00;2.40;;;2.30;;
2225;SDS011;1119;48.288;8.726;2023-02-28T03:00:52;4.60;;;4.18;;
2225;SDS011;1119;48.288;8.726;2023-02-28T03:03:43;6.60;;;4.07;;
2225;SDS011;1119;48.288;8.726;2023-02-28T03:06:32;2.55;;;2.45;;
2225;SDS011;1119;48.288;8.726;2023-02-28T03:09:22;4.32;;;4.07;;
2225;SDS011;1119;48.288;8.726;2023-02-28T03:12:11;3.20;;;3.10;;
2225;SDS011;1119;48.288;8.726;2023-02-28T03:15:02;4.70;;;4.50;;
2225;SDS011;1119;48.288;8.726;2023-02-28T03:18:01;3.42;;;3.22;;
2225;SDS011;1119;48.288;8.726;2023-02-28T03:20:57;3.80;;;3.60;;
2225;SDS011;1119;48.288;8.726;2023-02-28T03:23:59;3.60;;;3.42;;
2225;SDS011;1119;48.288;8.726;2023-02-28T03:26:54;3.25;;;2.97;;
2225;SDS011;1119;48.288;8.726;2023-02-28T03:29:47;3.13;;;3.03;;
2225;SDS011;1119;48.288;8.726;2023-02-28T03:32:46;3.72;;;3.50;;
2225;SDS011;1119;48.288;8.726;2023-02-28T03:35:42;3.35;;;3.15;;
2225;SDS011;1119;48.288;8.726;2023-02-28T03:38:35;3.30;;;3.10;;
2225;SDS011;1119;48.288;8.726;2023-02-28T03:41:29;5.00;;;4.60;;
2225;SDS011;1119;48.288;8.726;2023-02-28T03:44:22;3.75;;;3.55;;
2225;SDS011;1119;48.288;8.726;2023-02-28T03:47:15;4.53;;;4.22;;
2225;SDS011;1119;48.288;8.726;2023-02-28T03:50:10;4.70;;;4.32;;
2225;SDS011;1119;48.288;8.726;2023-02-28T03:53:03;5.05;;;4.65;;
2225;SDS011;1119;48.288;8.726;2023-02-28T03:55:56;4.75;;;3.90;;
2225;SDS011;1119;48.288;8.726;2023-02-28T03:58:51;3.88;;;3.67;;
2225;SDS011;1119;48.288;8.726;2023-02-28T04:01:45;3.30;;;3.10;;
2225;SDS011;1119;48.288;8.726;2023-02-28T04:04:35;3.60;;;3.30;;
2225;SDS011;1119;48.288;8.726;2023-02-28T04:07:23;3.10;;;2.85;;
2225;SDS011;1119;48.288;8.726;2023-02-28T04:10:11;3.55;;;3.35;;
2225;SDS011;1119;48.288;8.726;2023-02-28T04:12:59;4.97;;;4.68;;
2225;SDS011;1119;48.288;8.726;2023-02-28T04:15:47;4.68;;;4.38;;
2225;SDS011;1119;48.288;8.726;2023-02-28T04:18:36;3.38;;;3.28;;
2225;SDS011;1119;48.288;8.726;2023-02-28T04:21:24;6.35;;;6.00;;
2225;SDS011;1119;48.288;8.726;2023-02-28T04:24:12;3.85;;;3.60;;
2225;SDS011;1119;48.288;8.726;2023-02-28T04:27:02;3.47;;;3.33;;
2225;SDS011;1119;48.288;8.726;2023-02-28T04:29:50;4.07;;;3.88;;
2225;SDS011;1119;48.288;8.726;2023-02-28T04:32:37;3.45;;;3.35;;
2225;SDS011;1119;48.288;8.726;2023-02-28T04:35:26;3.80;;;3.60;;
2225;SDS011;1119;48.288;8.726;2023-02-28T04:38:14;5.35;;;5.05;;
2225;SDS011;1119;48.288;8.726;2023-02-28T04:41:02;5.20;;;4.88;;
2225;SDS011;1119;48.288;8.726;2023-02-28T04:43:50;4.47;;;4.18;;
2225;SDS011;1119;48.288;8.726;2023-02-28T04:46:38;4.60;;;4.13;;
2225;SDS011;1119;48.288;8.726;2023-02-28T04:49:26;3.95;;;3.70;;
2225;SDS011;1119;48.288;8.726;2023-02-28T04:52:15;6.30;;;4.63;;
2225;SDS011;1119;48.288;8.726;2023-02-28T04:57:58;5.70;;;4.47;;
2225;SDS011;1119;48.288;8.726;2023-02-28T05:00:45;5.13;;;3.42;;
2225;SDS011;1119;48.288;8.726;2023-02-28T05:03:33;4.95;;;4.55;;
2225;SDS011;1119;48.288;8.726;2023-02-28T05:06:20;3.60;;;3.50;;
2225;SDS011;1119;48.288;8.726;2023-02-28T05:09:11;6.57;;;5.97;;
2225;SDS011;1119;48.288;8.726;2023-02-28T05:11:59;4.82;;;4.53;;
2225;SDS011;1119;48.288;8.726;2023-02-28T05:14:47;5.57;;;5.07;;
2225;SDS011;1119;48.288;8.726;2023-02-28T05:17:34;4.30;;;4.10;;
2225;SDS011;1119;48.288;8.726;2023-02-28T05:20:22;6.28;;;5.70;;
2225;SDS011;1119;48.288;8.726;2023-02-28T05:23:10;5.85;;;5.35;;
2225;SDS011;1119;48.288;8.726;2023-02-28T05:26:00;4.38;;;4.18;;
2225;SDS011;1119;48.288;8.726;2023-02-28T05:28:48;5.15;;;4.75;;
2225;SDS011;1119;48.288;8.726;2023-02-28T05:31:36;5.13;;;4.55;;
2225;SDS011;1119;48.288;8.726;2023-02-28T05:34:24;3.13;;;2.97;;
2225;SDS011;1119;48.288;8.726;2023-02-28T05:37:12;6.72;;;5.40;;
2225;SDS011;1119;48.288;8.726;2023-02-28T05:40:01;6.03;;;5.63;;
2225;SDS011;1119;48.288;8.726;2023-02-28T05:42:53;6.43;;;6.03;;
2225;SDS011;1119;48.288;8.726;2023-02-28T05:45:40;5.32;;;5.05;;
2225;SDS011;1119;48.288;8.726;2023-02-28T05:48:28;4.38;;;4.03;;
2225;SDS011;1119;48.288;8.726;2023-02-28T05:51:15;10.32;;;6.50;;
2225;SDS011;1119;48.288;8.726;2023-02-28T05:54:04;4.38;;;4.07;;
2225;SDS011;1119;48.288;8.726;2023-02-28T05:56:52;6.90;;;6.20;;
2225;SDS011;1119;48.288;8.726;2023-02-28T05:59:41;6.30;;;5.80;;
2225;SDS011;1119;48.288;8.726;2023-02-28T06:02:28;4.60;;;4.40;;
2225;SDS011;1119;48.288;8.726;2023-02-28T06:05:17;5.53;;;5.07;;
2225;SDS011;1119;48.288;8.726;2023-02-28T06:08:04;4.75;;;4.45;;
2225;SDS011;1119;48.288;8.726;2023-02-28T06:10:52;4.07;;;3.88;;
2225;SDS011;1119;48.288;8.726;2023-02-28T06:13:40;5.60;;;5.30;;
2225;SDS011;1119;48.288;8.726;2023-02-28T06:16:29;8.35;;;6.25;;
2225;SDS011;1119;48.288;8.726;2023-02-28T06:19:19;5.22;;;4.82;;
2225;SDS011;1119;48.288;8.726;2023-02-28T06:22:07;5.82;;;5.43;;
2225;SDS011;1119;48.288;8.726;2023-02-28T06:24:55;6.60;;;4.70;;
2225;SDS011;1119;48.288;8.726;2023-02-28T06:27:43;3.92;;;3.72;;
2225;SDS011;1119;48.288;8.726;2023-02-28T06:30:31;4.22;;;3.97;;
2225;SDS011;1119;48.288;8.726;2023-02-28T06:33:20;4.55;;;4.25;;
2225;SDS011;1119;48.288;8.726;2023-02-28T06:36:09;5.28;;;4.93;;
2225;SDS011;1119;48.288;8.726;2023-02-28T06:38:58;3.83;;;3.65;;
2225;SDS011;1119;48.288;8.726;2023-02-28T06:41:46;6.13;;;5.55;;
2225;SDS011;1119;48.288;8.726;2023-02-28T06:44:34;3.45;;;3.25;;
2225;SDS011;1119;48.288;8.726;2023-02-28T06:47:22;3.72;;;3.53;;
2225;SDS011;1119;48.288;8.726;2023-02-28T06:50:11;2.92;;;2.75;;
2225;SDS011;1119;48.288;8.726;2023-02-28T06:52:59;7.00;;;4.95;;
2225;SDS011;1119;48.288;8.726;2023-02-28T06:55:47;3.80;;;3.70;;
2225;SDS011;1119;48.288;8.726;2023-02-28T06:58:34;2.67;;;2.58;;
2225;SDS011;1119;48.288;8.726;2023-02-28T07:01:23;4.53;;;4.22;;
2225;SDS011;1119;48.288;8.726;2023-02-28T07:04:10;3.55;;;3.28;;
2225;SDS011;1119;48.288;8.726;2023-02-28T07:07:00;4.60;;;4.40;;
2225;SDS011;1119;48.288;8.726;2023-02-28T07:09:47;4.93;;;4.65;;
2225;SDS011;1119;48.288;8.726;2023-02-28T07:12:36;3.60;;;3.50;;
2225;SDS011;1119;48.288;8.726;2023-02-28T07:15:24;7.15;;;3.88;;
2225;SDS011;1119;48.288;8.726;2023-02-28T07:18:11;4.55;;;4.15;;
2225;SDS011;1119;48.288;8.726;2023-02-28T07:21:01;4.78;;;4.57;;
2225;SDS011;1119;48.288;8.726;2023-02-28T07:23:50;6.50;;;3.47;;
2225;SDS011;1119;48.288;8.726;2023-02-28T07:26:38;5.60;;;5.20;;
2225;SDS011;1119;48.288;8.726;2023-02-28T07:29:26;2.40;;;2.40;;
2225;SDS011;1119;48.288;8.726;2023-02-28T07:32:14;9.63;;;7.18;;
2225;SDS011;1119;48.288;8.726;2023-02-28T07:35:02;5.32;;;4.90;;
2225;SDS011;1119;48.288;8.726;2023-02-28T07:37:50;5.95;;;5.00;;
2225;SDS011;1119;48.288;8.726;2023-02-28T07:40:39;4.40;;;4.20;;
2225;SDS011;1119;48.288;8.726;2023-02-28T07:43:26;6.05;;;5.65;;
2225;SDS011;1119;48.288;8.726;2023-02-28T07:46:15;6.32;;;5.85;;
2225;SDS011;1119;48.288;8.726;2023-02-28T07:49:05;4.15;;;3.95;;
2225;SDS011;1119;48.288;8.726;2023-02-28T07:51:53;4.90;;;4.65;;
2225;SDS011;1119;48.288;8.726;2023-02-28T07:54:41;7.57;;;6.32;;
2225;SDS011;1119;48.288;8.726;2023-02-28T07:57:30;4.82;;;4.47;;
2225;SDS011;1119;48.288;8.726;2023-02-28T08:00:18;4.45;;;4.20;;
2225;SDS011;1119;48.288;8.726;2023-02-28T08:03:06;4.82;;;4.53;;
2225;SDS011;1119;48.288;8.726;2023-02-28T08:05:55;6.35;;;5.85;;
2225;SDS011;1119;48.288;8.726;2023-02-28T08:08:43;5.03;;;4.53;;
2225;SDS011;1119;48.288;8.726;2023-02-28T08:11:30;6.28;;;5.05;;
2225;SDS011;1119;48.288;8.726;2023-02-28T08:14:19;4.05;;;3.75;;
2225;SDS011;1119;48.288;8.726;2023-02-28T08:17:07;10.05;;;5.22;;
2225;SDS011;1119;48.288;8.726;2023-02-28T08:19:56;6.57;;;6.07;;
2225;SDS011;1119;48.288;8.726;2023-02-28T08:22:43;6.15;;;5.60;;
2225;SDS011;1119;48.288;8.726;2023-02-28T08:25:31;6.18;;;5.38;;
2225;SDS011;1119;48.288;8.726;2023-02-28T08:28:18;4.63;;;4.32;;
2225;SDS011;1119;48.288;8.726;2023-02-28T08:31:08;9.40;;;5.43;;
2225;SDS011;1119;48.288;8.726;2023-02-28T08:33:59;3.83;;;3.63;;
2225;SDS011;1119;48.288;8.726;2023-02-28T08:36:46;5.05;;;4.75;;
2225;SDS011;1119;48.288;8.726;2023-02-28T08:39:34;4.72;;;4.53;;
2225;SDS011;1119;48.288;8.726;2023-02-28T08:42:22;4.72;;;4.32;;
2225;SDS011;1119;48.288;8.726;2023-02-28T08:45:10;4.93;;;4.53;;
2225;SDS011;1119;48.288;8.726;2023-02-28T08:48:00;5.35;;;4.97;;
2225;SDS011;1119;48.288;8.726;2023-02-28T08:50:54;7.93;;;5.05;;
2225;SDS011;1119;48.288;8.726;2023-02-28T08:53:43;6.10;;;5.70;;
2225;SDS011;1119;48.288;8.726;2023-02-28T08:56:31;3.65;;;3.42;;
2225;SDS011;1119;48.288;8.726;2023-02-28T08:59:19;6.88;;;6.32;;
2225;SDS011;1119;48.288;8.726;2023-02-28T09:02:08;4.10;;;3.88;;
2225;SDS011;1119;48.288;8.726;2023-02-28T09:04:58;5.35;;;3.75;;
2225;SDS011;1119;48.288;8.726;2023-02-28T09:07:46;4.15;;;3.88;;
2225;SDS011;1119;48.288;8.726;2023-02-28T09:10:34;5.20;;;4.90;;
2225;SDS011;1119;48.288;8.726;2023-02-28T09:13:22;6.07;;;5.57;;
2225;SDS011;1119;48.288;8.726;2023-02-28T09:16:11;5.88;;;5.47;;
2225;SDS011;1119;48.288;8.726;2023-02-28T09:19:00;4.63;;;4.30;;
2225;SDS011;1119;48.288;8.726;2023-02-28T09:21:50;4.90;;;4.50;;
2225;SDS011;1119;48.288;8.726;2023-02-28T09:24:38;6.93;;;6.20;;
2225;SDS011;1119;48.288;8.726;2023-02-28T09:27:26;5.82;;;3.42;;
2225;SDS011;1119;48.288;8.726;2023-02-28T09:30:13;3.38;;;3.17;;
2225;SDS011;1119;48.288;8.726;2023-02-28T09:33:02;4.75;;;4.35;;
2225;SDS011;1119;48.288;8.726;2023-02-28T09:35:50;6.97;;;5.57;;
2225;SDS011;1119;48.288;8.726;2023-02-28T09:38:50;6.65;;;5.97;;
2225;SDS011;1119;48.288;8.726;2023-02-28T09:41:39;5.30;;;4.95;;
2225;SDS011;1119;48.288;8.726;2023-02-28T09:44:35;6.00;;;5.50;;
2225;SDS011;1119;48.288;8.726;2023-02-28T09:47:27;4.97;;;4.43;;
2225;SDS011;1119;48.288;8.726;2023-02-28T09:50:22;7.00;;;6.25;;
2225;SDS011;1119;48.288;8.726;2023-02-28T09:53:19;8.57;;;7.80;;
2225;SDS011;1119;48.288;8.726;2023-02-28T09:56:15;7.75;;;5.38;;
2225;SDS011;1119;48.288;8.726;2023-02-28T09:59:14;6.30;;;5.70;;
2225;SDS011;1119;48.288;8.726;2023-02-28T10:02:23;5.00;;;4.65;;
2225;SDS011;1119;48.288;8.726;2023-02-28T10:05:41;5.75;;;5.35;;
2225;SDS011;1119;48.288;8.726;2023-02-28T10:08:40;6.43;;;5.82;;
2225;SDS011;1119;48.288;8.726;2023-02-28T10:11:37;8.73;;;5.70;;
2225;SDS011;1119;48.288;8.726;2023-02-28T10:14:28;5.97;;;4.22;;
2225;SDS011;1119;48.288;8.726;2023-02-28T10:17:21;4.82;;;4.60;;
2225;SDS011;1119;48.288;8.726;2023-02-28T10:20:12;6.63;;;4.75;;
2225;SDS011;1119;48.288;8.726;2023-02-28T10:23:09;7.20;;;5.72;;
2225;SDS011;1119;48.288;8.726;2023-02-28T10:26:08;5.82;;;5.32;;
2225;SDS011;1119;48.288;8.726;2023-02-28T10:29:02;6.97;;;6.32;;
2225;SDS011;1119;48.288;8.726;2023-02-28T10:31:50;7.80;;;6.25;;
2225;SDS011;1119;48.288;8.726;2023-02-28T10:34:38;8.32;;;6.18;;
2225;SDS011;1119;48.288;8.726;2023-02-28T10:37:25;7.80;;;4.57;;
2225;SDS011;1119;48.288;8.726;2023-02-28T10:40:25;11.85;;;8.55;;
2225;SDS011;1119;48.288;8.726;2023-02-28T10:43:21;6.53;;;6.18;;
2225;SDS011;1119;48.288;8.726;2023-02-28T10:46:14;8.40;;;4.90;;
2225;SDS011;1119;48.288;8.726;2023-02-28T10:49:14;7.95;;;7.15;;
2225;SDS011;1119;48.288;8.726;2023-02-28T10:52:07;7.20;;;6.60;;
2225;SDS011;1119;48.288;8.726;2023-02-28T10:54:57;8.68;;;7.22;;
2225;SDS011;1119;48.288;8.726;2023-02-28T10:58:03;6.40;;;5.80;;
2225;SDS011;1119;48.288;8.726;2023-02-28T11:01:13;8.05;;;7.25;;
2225;SDS011;1119;48.288;8.726;2023-02-28T11:04:03;5.63;;;5.07;;
2225;SDS011;1119;48.288;8.726;2023-02-28T11:07:04;5.78;;;5.22;;
2225;SDS011;1119;48.288;8.726;2023-02-28T11:09:57;6.45;;;5.53;;
2225;SDS011;1119;48.288;8.726;2023-02-28T11:12:45;7.65;;;5.00;;
2225;SDS011;1119;48.288;8.726;2023-02-28T11:15:33;6.35;;;5.95;;
2225;SDS011;1119;48.288;8.726;2023-02-28T11:18:24;5.70;;;5.13;;
2225;SDS011;1119;48.288;8.726;2023-02-28T11:21:17;8.30;;;4.40;;
2225;SDS011;1119;48.288;8.726;2023-02-28T11:24:22;7.75;;;7.05;;
2225;SDS011;1119;48.288;8.726;2023-02-28T11:27:24;5.45;;;3.75;;
2225;SDS011;1119;48.288;8.726;2023-02-28T11:30:33;7.22;;;6.25;;
2225;SDS011;1119;48.288;8.726;2023-02-28T11:33:26;5.95;;;5.38;;
2225;SDS011;1119;48.288;8.726;2023-02-28T11:36:17;5.15;;;4.68;;
2225;SDS011;1119;48.288;8.726;2023-02-28T11:39:10;12.38;;;7.68;;
2225;SDS011;1119;48.288;8.726;2023-02-28T11:42:05;7.78;;;7.07;;
2225;SDS011;1119;48.288;8.726;2023-02-28T11:45:21;6.63;;;6.03;;
2225;SDS011;1119;48.288;8.726;2023-02-28T11:48:25;6.97;;;4.65;;
2225;SDS011;1119;48.288;8.726;2023-02-28T11:51:21;7.15;;;6.50;;
2225;SDS011;1119;48.288;8.726;2023-02-28T11:57:49;10.40;;;8.50;;
2225;SDS011;1119;48.288;8.726;2023-02-28T12:01:03;7.22;;;5.75;;
2225;SDS011;1119;48.288;8.726;2023-02-28T12:04:24;6.97;;;6.45;;
2225;SDS011;1119;48.288;8.726;2023-02-28T12:07:18;6.35;;;5.80;;
2225;SDS011;1119;48.288;8.726;2023-02-28T12:10:17;6.35;;;5.55;;
2225;SDS011;1119;48.288;8.726;2023-02-28T12:13:12;6.53;;;5.72;;
2225;SDS011;1119;48.288;8.726;2023-02-28T12:19:39;4.63;;;4.32;;
2225;SDS011;1119;48.288;8.726;2023-02-28T12:22:35;4.72;;;4.32;;
2225;SDS011;1119;48.288;8.726;2023-02-28T12:25:38;7.00;;;6.55;;
2225;SDS011;1119;48.288;8.726;2023-02-28T12:28:37;7.70;;;6.32;;
2225;SDS011;1119;48.288;8.726;2023-02-28T12:31:30;6.47;;;5.45;;
2225;SDS011;1119;48.288;8.726;2023-02-28T12:34:22;7.22;;;6.55;;
2225;SDS011;1119;48.288;8.726;2023-02-28T12:37:19;6.72;;;5.68;;
2225;SDS011;1119;48.288;8.726;2023-02-28T12:40:13;6.97;;;6.28;;
2225;SDS011;1119;48.288;8.726;2023-02-28T12:43:06;6.72;;;6.07;;
2225;SDS011;1119;48.288;8.726;2023-02-28T12:45:56;4.57;;;3.95;;
2225;SDS011;1119;48.288;8.726;2023-02-28T12:48:46;5.35;;;4.95;;
2225;SDS011;1119;48.288;8.726;2023-02-28T12:51:41;7.65;;;5.38;;
2225;SDS011;1119;48.288;8.726;2023-02-28T12:54:32;5.65;;;5.20;;
2225;SDS011;1119;48.288;8.726;2023-02-28T12:57:27;5.05;;;4.43;;
2225;SDS011;1119;48.288;8.726;2023-02-28T13:00:23;7.95;;;7.22;;
2225;SDS011;1119;48.288;8.726;2023-02-28T13:03:26;7.28;;;6.72;;
2225;SDS011;1119;48.288;8.726;2023-02-28T13:06:56;7.47;;;5.78;;
2225;SDS011;1119;48.288;8.726;2023-02-28T13:10:14;10.38;;;9.25;;
2225;SDS011;1119;48.288;8.726;2023-02-28T13:13:04;12.38;;;9.07;;
2225;SDS011;1119;48.288;8.726;2023-02-28T13:15:59;5.68;;;5.13;;
2225;SDS011;1119;48.288;8.726;2023-02-28T13:18:50;10.15;;;8.70;;
2225;SDS011;1119;48.288;8.726;2023-02-28T13:21:41;8.02;;;7.32;;
2225;SDS011;1119;48.288;8.726;2023-02-28T13:24:38;6.28;;;5.68;;
2225;SDS011;1119;48.288;8.726;2023-02-28T13:27:38;4.43;;;4.03;;
2225;SDS011;1119;48.288;8.726;2023-02-28T13:34:04;7.88;;;6.28;;
2225;SDS011;1119;48.288;8.726;2023-02-28T13:40:27;4.38;;;3.97;;
2225;SDS011;1119;48.288;8.726;2023-02-28T13:43:24;9.55;;;8.75;;
2225;SDS011;1119;48.288;8.726;2023-02-28T13:50:21;7.55;;;6.95;;
2225;SDS011;1119;48.288;8.726;2023-02-28T13:56:43;7.28;;;6.60;;
2225;SDS011;1119;48.288;8.726;2023-02-28T13:59:42;7.35;;;6.18;;
2225;SDS011;1119;48.288;8.726;2023-02-28T14:02:45;10.10;;;8.18;;
2225;SDS011;1119;48.288;8.726;2023-02-28T14:06:15;6.95;;;6.35;;
2225;SDS011;1119;48.288;8.726;2023-02-28T14:09:16;8.27;;;7.13;;
2225;SDS011;1119;48.288;8.726;2023-02-28T14:15:44;5.47;;;5.10;;
2225;SDS011;1119;48.288;8.726;2023-02-28T14:18:36;11.65;;;10.55;;
2225;SDS011;1119;48.288;8.726;2023-02-28T14:21:28;7.78;;;7.38;;
2225;SDS011;1119;48.288;8.726;2023-02-28T14:24:24;9.20;;;7.88;;
2225;SDS011;1119;48.288;8.726;2023-02-28T14:27:35;7.63;;;7.13;;
2225;SDS011;1119;48.288;8.726;2023-02-28T14:30:36;6.60;;;5.90;;
2225;SDS011;1119;48.288;8.726;2023-02-28T14:33:41;6.45;;;5.85;;
2225;SDS011;1119;48.288;8.726;2023-02-28T14:36:44;4.57;;;4.15;;
2225;SDS011;1119;48.288;8.726;2023-02-28T14:39:32;15.82;;;8.75;;
2225;SDS011;1119;48.288;8.726;2023-02-28T14:42:27;7.40;;;6.68;;
2225;SDS011;1119;48.288;8.726;2023-02-28T14:45:18;8.63;;;7.13;;
2225;SDS011;1119;48.288;8.726;2023-02-28T14:48:09;9.23;;;8.38;;
2225;SDS011;1119;48.288;8.726;2023-02-28T14:50:58;8.75;;;7.47;;
2225;SDS011;1119;48.288;8.726;2023-02-28T14:53:48;7.88;;;7.15;;
2225;SDS011;1119;48.288;8.726;2023-02-28T14:56:38;11.25;;;9.48;;
2225;SDS011;1119;48.288;8.726;2023-02-28T14:59:28;8.48;;;7.82;;
2225;SDS011;1119;48.288;8.726;2023-02-28T15:02:19;8.93;;;8.02;;
2225;SDS011;1119;48.288;8.726;2023-02-28T15:05:29;8.35;;;6.47;;
2225;SDS011;1119;48.288;8.726;2023-02-28T15:08:17;8.07;;;7.28;;
2225;SDS011;1119;48.288;8.726;2023-02-28T15:11:07;10.05;;;9.05;;
2225;SDS011;1119;48.288;8.726;2023-02-28T15:13:58;7.65;;;6.80;;
2225;SDS011;1119;48.288;8.726;2023-02-28T15:16:49;9.25;;;8.05;;
2225;SDS011;1119;48.288;8.726;2023-02-28T15:19:41;6.70;;;4.30;;
2225;SDS011;1119;48.288;8.726;2023-02-28T15:22:40;5.65;;;5.10;;
2225;SDS011;1119;48.288;8.726;2023-02-28T15:25:27;6.15;;;5.65;;
2225;SDS011;1119;48.288;8.726;2023-02-28T15:28:16;6.75;;;6.18;;
2225;SDS011;1119;48.288;8.726;2023-02-28T15:31:18;10.45;;;9.30;;
2225;SDS011;1119;48.288;8.726;2023-02-28T15:34:15;6.18;;;5.68;;
2225;SDS011;1119;48.288;8.726;2023-02-28T15:40:25;6.70;;;6.00;;
2225;SDS011;1119;48.288;8.726;2023-02-28T15:43:16;7.50;;;6.85;;
2225;SDS011;1119;48.288;8.726;2023-02-28T15:46:10;5.88;;;5.40;;
2225;SDS011;1119;48.288;8.726;2023-02-28T15:49:01;6.63;;;6.07;;
2225;SDS011;1119;48.288;8.726;2023-02-28T15:51:48;12.63;;;6.43;;
2225;SDS011;1119;48.288;8.726;2023-02-28T15:54:38;4.50;;;4.13;;
2225;SDS011;1119;48.288;8.726;2023-02-28T15:57:29;7.55;;;6.85;;
2225;SDS011;1119;48.288;8.726;2023-02-28T16:00:19;6.35;;;5.78;;
2225;SDS011;1119;48.288;8.726;2023-02-28T16:03:25;9.32;;;7.95;;
2225;SDS011;1119;48.288;8.726;2023-02-28T16:06:21;6.55;;;5.90;;
2225;SDS011;1119;48.288;8.726;2023-02-28T16:09:21;5.18;;;4.82;;
2225;SDS011;1119;48.288;8.726;2023-02-28T16:12:08;6.85;;;4.95;;
2225;SDS011;1119;48.288;8.726;2023-02-28T16:15:01;7.65;;;6.90;;
2225;SDS011;1119;48.288;8.726;2023-02-28T16:17:54;9.35;;;8.35;;
2225;SDS011;1119;48.288;8.726;2023-02-28T16:20:43;6.22;;;5.72;;
2225;SDS011;1119;48.288;8.726;2023-02-28T16:23:31;8.35;;;7.60;;
2225;SDS011;1119;48.288;8.726;2023-02-28T16:26:19;9.88;;;8.98;;
2225;SDS011;1119;48.288;8.726;2023-02-28T16:29:10;9.48;;;8.35;;
2225;SDS011;1119;48.288;8.726;2023-02-28T16:32:05;11.90;;;9.43;;
2225;SDS011;1119;48.288;8.726;2023-02-28T16:34:53;5.53;;;5.03;;
2225;SDS011;1119;48.288;8.726;2023-02-28T16:37:41;6.63;;;6.03;;
2225;SDS011;1119;48.288;8.726;2023-02-28T16:40:28;11.95;;;9.38;;
2225;SDS011;1119;48.288;8.726;2023-02-28T16:43:22;8.57;;;7.03;;
2225;SDS011;1119;48.288;8.726;2023-02-28T16:46:11;7.50;;;6.80;;
2225;SDS011;1119;48.288;8.726;2023-02-28T16:49:01;11.18;;;10.05;;
2225;SDS011;1119;48.288;8.726;2023-02-28T16:51:49;8.52;;;7.70;;
2225;SDS011;1119;48.288;8.726;2023-02-28T16:54:36;12.57;;;10.10;;
2225;SDS011;1119;48.288;8.726;2023-02-28T16:57:24;10.20;;;9.13;;
2225;SDS011;1119;48.288;8.726;2023-02-28T17:00:13;7.40;;;6.72;;
2225;SDS011;1119;48.288;8.726;2023-02-28T17:03:01;10.15;;;8.85;;
2225;SDS011;1119;48.288;8.726;2023-02-28T17:05:51;8.82;;;7.93;;
2225;SDS011;1119;48.288;8.726;2023-02-28T17:08:38;6.90;;;6.07;;
2225;SDS011;1119;48.288;8.726;2023-02-28T17:11:26;7.43;;;6.68;;
2225;SDS011;1119;48.288;8.726;2023-02-28T17:14:14;6.13;;;5.63;;
2225;SDS011;1119;48.288;8.726;2023-02-28T17:17:02;7.28;;;6.72;;
2225;SDS011;1119;48.288;8.726;2023-02-28T17:19:51;7.78;;;6.97;;
2225;SDS011;1119;48.288;8.726;2023-02-28T17:22:40;8.45;;;7.65;;
2225;SDS011;1119;48.288;8.726;2023-02-28T17:25:28;8.75;;;7.80;;
2225;SDS011;1119;48.288;8.726;2023-02-28T17:28:16;9.25;;;8.15;;
2225;SDS011;1119;48.288;8.726;2023-02-28T17:31:03;10.20;;;9.25;;
2225;SDS011;1119;48.288;8.726;2023-02-28T17:33:51;9.38;;;6.93;;
2225;SDS011;1119;48.288;8.726;2023-02-28T17:36:39;9.50;;;8.38;;
2225;SDS011;1119;48.288;8.726;2023-02-28T17:39:28;9.55;;;8.60;;
2225;SDS011;1119;48.288;8.726;2023-02-28T17:42:17;11.63;;;7.72;;
2225;SDS011;1119;48.288;8.726;2023-02-28T17:45:05;8.40;;;7.15;;
2225;SDS011;1119;48.288;8.726;2023-02-28T17:47:54;6.82;;;6.18;;
2225;SDS011;1119;48.288;8.726;2023-02-28T17:50:41;11.00;;;9.25;;
2225;SDS011;1119;48.288;8.726;2023-02-28T17:53:29;8.45;;;7.55;;
2225;SDS011;1119;48.288;8.726;2023-02-28T17:56:19;12.60;;;11.30;;
2225;SDS011;1119;48.288;8.726;2023-02-28T17:59:09;7.97;;;7.03;;
2225;SDS011;1119;48.288;8.726;2023-02-28T18:01:59;16.60;;;8.70;;
2225;SDS011;1119;48.288;8.726;2023-02-28T18:04:46;10.73;;;8.88;;
2225;SDS011;1119;48.288;8.726;2023-02-28T18:07:35;10.77;;;7.25;;
2225;SDS011;1119;48.288;8.726;2023-02-28T18:10:24;11.98;;;10.38;;
2225;SDS011;1119;48.288;8.726;2023-02-28T18:13:14;6.13;;;5.53;;
2225;SDS011;1119;48.288;8.726;2023-02-28T18:16:02;7.38;;;6.68;;
2225;SDS011;1119;48.288;8.726;2023-02-28T18:18:50;12.02;;;7.20;;
2225;SDS011;1119;48.288;8.726;2023-02-28T18:21:38;7.95;;;6.45;;
2225;SDS011;1119;48.288;8.726;2023-02-28T18:24:25;7.07;;;6.22;;
2225;SDS011;1119;48.288;8.726;2023-02-28T18:27:13;3.13;;;3.03;;
2225;SDS011;1119;48.288;8.726;2023-02-28T18:30:02;7.30;;;5.00;;
2225;SDS011;1119;48.288;8.726;2023-02-28T18:32:51;10.85;;;6.28;;
2225;SDS011;1119;48.288;8.726;2023-02-28T18:35:39;6.60;;;5.97;;